Time;durP1;ratioP1;P1;durP2;ratioP2;P2;SDS_P1;SDS_P2;PMS_P1;PMS_P2;Temp;Humidity;BMP_temperature;BMP_pressure;BME280_temperature;BME280_humidity;BME280_pressure;Samples;Min_cycle;Max_cycle;Signal;HPM_P1;HPM_P2
2023/01/17 14:17:21;;;;;;;3.05;0.95;;;18.00;36.80;;;;;;5077894;27;21048;-83
2023/01/17 14:20:14;;;;;;;4.93;0.88;;;14.30;43.80;;;;;;5071029;28;20156;-83
2023/01/17 14:22:52;;;;;;;7.93;0.95;;;11.20;49.50;;;;;;5077139;28;20048;-83
2023/01/17 14:25:23;;;;;;;2.05;0.93;;;9.30;54.80;;;;;;5079525;28;20060;-83
2023/01/17 14:28:20;;;;;;;8.20;0.77;;;8.00;58.00;;;;;;5078456;28;20060;-84
2023/01/17 14:30:53;;;;;;;7.68;1.10;;;7.10;61.30;;;;;;5075658;28;20051;-83
2023/01/17 14:33:24;;;;;;;4.30;1.38;;;6.30;64.20;;;;;;5082961;28;20069;-82
2023/01/17 14:35:59;;;;;;;8.20;1.30;;;5.70;65.60;;;;;;5082621;28;20045;-83
2023/01/17 14:38:31;;;;;;;7.45;1.10;;;5.20;67.00;;;;;;5077957;28;20052;-85
2023/01/17 14:41:06;;;;;;;8.35;1.05;;;4.80;68.70;;;;;;5076138;28;20048;-82
2023/01/17 14:43:37;;;;;;;18.65;1.60;;;4.50;68.90;;;;;;5070058;28;20063;-82
2023/01/17 14:46:07;;;;;;;5.53;1.40;;;4.20;70.60;;;;;;5075685;28;20071;-83
2023/01/17 14:48:39;;;;;;;9.07;1.10;;;4.00;71.40;;;;;;5079568;28;20081;-80
2023/01/17 14:51:27;;;;;;;10.80;0.90;;;3.80;72.60;;;;;;5070488;28;20048;-79
2023/01/17 14:54:06;;;;;;;9.30;0.95;;;3.80;73.60;;;;;;5079903;28;20510;-79
2023/01/17 14:56:33;;;;;;;6.25;1.15;;;3.70;73.20;;;;;;5073719;28;20567;-79
2023/01/17 14:59:20;;;;;;;8.88;1.27;;;3.50;73.80;;;;;;5070644;28;20062;-78
2023/01/17 15:01:57;;;;;;;3.80;1.10;;;3.40;74.00;;;;;;5072210;28;20088;-79
2023/01/17 15:04:37;;;;;;;3.70;0.55;;;3.20;73.70;;;;;;5071150;28;20051;-79
2023/01/17 15:07:06;;;;;;;6.13;0.93;;;3.10;73.30;;;;;;5071831;28;20413;-79
2023/01/17 15:09:36;;;;;;;2.97;0.73;;;3.00;73.10;;;;;;5065914;28;20135;-79
2023/01/17 15:12:07;;;;;;;15.88;0.98;;;2.90;73.90;;;;;;5075558;28;20070;-79
2023/01/17 15:14:38;;;;;;;4.45;0.68;;;2.80;74.60;;;;;;5074271;28;20055;-79
2023/01/17 15:17:23;;;;;;;6.88;0.85;;;2.70;75.20;;;;;;5074189;28;20047;-78
2023/01/17 15:19:56;;;;;;;4.28;1.45;;;2.50;76.10;;;;;;5073290;28;20068;-81
2023/01/17 15:22:24;;;;;;;2.28;0.63;;;2.40;76.00;;;;;;5072804;28;20485;-81
2023/01/17 15:24:52;;;;;;;5.72;0.75;;;2.40;76.30;;;;;;5071683;28;20475;-81
2023/01/17 15:27:20;;;;;;;7.43;1.25;;;2.30;76.50;;;;;;5072942;28;20829;-81
2023/01/17 15:29:47;;;;;;;10.65;1.05;;;2.20;77.20;;;;;;5058990;28;20497;-79
2023/01/17 15:32:23;;;;;;;4.13;0.73;;;2.10;77.00;;;;;;5068574;28;20055;-80
2023/01/17 15:34:51;;;;;;;3.22;0.85;;;2.10;77.60;;;;;;5063275;28;20446;-80
2023/01/17 15:37:38;;;;;;;4.65;0.82;;;2.00;77.50;;;;;;5066787;28;20209;-80
2023/01/17 15:40:30;;;;;;;4.15;0.85;;;2.10;77.50;;;;;;5055166;28;20059;-81
2023/01/17 15:43:00;;;;;;;3.70;1.15;;;2.00;77.40;;;;;;5070892;28;20424;-81
2023/01/17 15:45:29;;;;;;;9.10;1.27;;;2.00;77.40;;;;;;5064250;28;20044;-80
2023/01/17 15:47:58;;;;;;;4.05;0.90;;;1.90;77.80;;;;;;5066114;28;20052;-80
2023/01/17 15:50:30;;;;;;;2.80;0.80;;;1.80;77.90;;;;;;5062206;28;20056;-80
2023/01/17 15:53:12;;;;;;;8.20;1.20;;;1.80;78.10;;;;;;5053652;28;20064;-80
2023/01/17 15:55:39;;;;;;;4.15;1.00;;;1.80;78.40;;;;;;5056789;28;20040;-81
2023/01/17 15:58:25;;;;;;;7.57;1.55;;;1.70;78.50;;;;;;5062590;28;20143;-80
2023/01/17 16:00:53;;;;;;;3.75;0.70;;;1.70;79.00;;;;;;5064506;28;20056;-80
2023/01/17 16:03:21;;;;;;;7.47;1.05;;;1.70;79.50;;;;;;5059418;28;20586;-81
2023/01/17 16:05:49;;;;;;;1.50;0.73;;;1.60;79.30;;;;;;5060095;28;20670;-77
2023/01/17 16:08:45;;;;;;;3.00;1.20;;;1.60;79.60;;;;;;5063475;28;20079;-77
2023/01/17 16:11:13;;;;;;;7.85;1.40;;;1.50;80.60;;;;;;5060658;28;20327;-77
2023/01/17 16:13:42;;;;;;;4.13;1.38;;;1.50;80.40;;;;;;5063198;28;20756;-77
2023/01/17 16:16:11;;;;;;;2.75;1.48;;;1.50;80.70;;;;;;5058445;28;20110;-77
2023/01/17 16:18:39;;;;;;;4.15;1.30;;;1.40;81.40;;;;;;5068674;28;20118;-77
2023/01/17 16:21:30;;;;;;;6.32;1.23;;;1.40;81.50;;;;;;5060016;28;20041;-77
2023/01/17 16:23:58;;;;;;;2.10;1.00;;;1.30;81.50;;;;;;5056116;28;20053;-77
2023/01/17 16:26:27;;;;;;;2.75;1.00;;;1.30;81.50;;;;;;5062649;28;20401;-77
2023/01/17 16:28:54;;;;;;;3.53;1.50;;;1.30;81.50;;;;;;5065489;28;20061;-78
2023/01/17 16:31:21;;;;;;;2.15;1.13;;;1.30;82.10;;;;;;5063886;28;20079;-79
2023/01/17 16:33:49;;;;;;;2.47;1.17;;;1.20;82.10;;;;;;5055287;28;20054;-80
2023/01/17 16:36:16;;;;;;;2.70;0.73;;;1.20;81.90;;;;;;5063365;28;20044;-79
2023/01/17 16:38:47;;;;;;;1.05;0.82;;;1.20;81.80;;;;;;5056137;28;20049;-81
2023/01/17 16:41:14;;;;;;;9.18;0.95;;;1.20;81.60;;;;;;5060776;28;20091;-78
2023/01/17 16:43:41;;;;;;;7.57;1.13;;;1.10;81.60;;;;;;5063699;28;20045;-77
2023/01/17 16:46:10;;;;;;;3.05;1.17;;;1.10;81.90;;;;;;5087710;27;20374;-77
2023/01/17 16:48:37;;;;;;;4.38;1.00;;;1.10;82.00;;;;;;5059611;28;20051;-77
2023/01/17 16:51:06;;;;;;;6.47;1.20;;;1.10;81.90;;;;;;5059816;28;20048;-77
2023/01/17 16:53:34;;;;;;;7.38;1.52;;;1.00;82.20;;;;;;5061102;28;20171;-77
2023/01/17 16:56:10;;;;;;;6.78;1.15;;;1.00;82.50;;;;;;5061880;28;20041;-79
2023/01/17 16:58:37;;;;;;;5.65;0.90;;;0.90;83.30;;;;;;5061351;28;20041;-77
2023/01/17 17:01:23;;;;;;;7.25;1.08;;;0.90;83.60;;;;;;5053173;28;20580;-78
2023/01/17 17:03:51;;;;;;;2.78;1.10;;;0.90;84.00;;;;;;5060341;28;20120;-77
2023/01/17 17:06:18;;;;;;;7.82;1.42;;;0.80;84.00;;;;;;5063676;28;20056;-78
2023/01/17 17:08:46;;;;;;;9.18;1.30;;;0.80;84.20;;;;;;5060513;28;20418;-83
2023/01/17 17:11:19;;;;;;;130.45;12.75;;;0.80;84.60;;;;;;5053804;28;20265;-78
2023/01/17 17:13:48;;;;;;;7.70;1.35;;;0.80;85.10;;;;;;5053965;28;20416;-77
2023/01/17 17:16:19;;;;;;;5.30;1.15;;;0.70;84.90;;;;;;5060834;28;20083;-81
2023/01/17 17:18:53;;;;;;;4.85;1.20;;;0.70;85.00;;;;;;5056723;28;20040;-80
2023/01/17 17:21:21;;;;;;;7.72;1.50;;;0.70;85.10;;;;;;5059814;28;20577;-79
2023/01/17 17:23:55;;;;;;;9.93;1.25;;;0.60;85.60;;;;;;5058219;28;20107;-76
2023/01/17 17:26:25;;;;;;;6.43;0.95;;;0.60;85.00;;;;;;5059129;28;20534;-77
2023/01/17 17:28:53;;;;;;;7.70;1.13;;;0.60;85.00;;;;;;5055142;28;20480;-76
2023/01/17 17:31:20;;;;;;;5.88;1.25;;;0.70;85.00;;;;;;5066439;28;20868;-76
2023/01/17 17:33:47;;;;;;;4.25;0.90;;;0.60;84.80;;;;;;5064962;28;20044;-77
2023/01/17 17:36:16;;;;;;;5.57;1.23;;;0.70;84.80;;;;;;5062829;28;20664;-79
2023/01/17 17:38:52;;;;;;;4.88;1.00;;;0.60;84.80;;;;;;5057406;28;20055;-76
2023/01/17 17:41:22;;;;;;;5.47;1.05;;;0.70;85.30;;;;;;5063023;28;20048;-77
2023/01/17 17:43:50;;;;;;;4.82;0.95;;;0.60;85.10;;;;;;5063191;28;20048;-77
2023/01/17 17:46:19;;;;;;;5.60;1.23;;;0.60;85.20;;;;;;5062088;28;20058;-76
2023/01/17 17:48:46;;;;;;;5.78;1.10;;;0.60;85.10;;;;;;5063125;28;20051;-76
2023/01/17 17:51:27;;;;;;;10.35;1.35;;;0.60;85.00;;;;;;5062706;28;20049;-76
2023/01/17 17:53:59;;;;;;;6.85;1.13;;;0.60;85.10;;;;;;5066560;28;20056;-76
2023/01/17 17:56:27;;;;;;;15.23;1.63;;;0.60;85.20;;;;;;5064893;28;20386;-76
2023/01/17 17:58:54;;;;;;;5.05;1.20;;;0.60;85.30;;;;;;5059528;28;20053;-76
2023/01/17 18:01:22;;;;;;;9.32;1.65;;;0.60;85.00;;;;;;5059493;28;20041;-76
2023/01/17 18:03:51;;;;;;;7.70;1.90;;;0.60;85.20;;;;;;5066298;28;20282;-77
2023/01/17 18:06:19;;;;;;;3.15;1.38;;;0.50;85.10;;;;;;5064500;28;20051;-78
2023/01/17 18:08:46;;;;;;;7.35;1.23;;;0.50;84.60;;;;;;5068382;28;20040;-77
2023/01/17 18:11:17;;;;;;;13.35;2.30;;;0.50;84.70;;;;;;5064433;28;20069;-77
2023/01/17 18:13:51;;;;;;;7.28;1.58;;;0.50;84.90;;;;;;5065043;28;20131;-78
2023/01/17 18:16:24;;;;;;;3.13;1.50;;;0.50;84.60;;;;;;5060362;28;20432;-80
2023/01/17 18:18:54;;;;;;;11.35;1.80;;;0.50;85.00;;;;;;5052792;28;20297;-79
2023/01/17 18:21:27;;;;;;;9.90;2.45;;;0.50;84.90;;;;;;5067360;28;20060;-80
2023/01/17 18:23:57;;;;;;;8.45;1.92;;;0.50;84.90;;;;;;5058315;28;20052;-79
2023/01/17 18:26:30;;;;;;;4.25;1.73;;;0.50;85.00;;;;;;5067503;28;20048;-81
2023/01/17 18:28:58;;;;;;;6.32;2.05;;;0.50;84.70;;;;;;5062175;28;20066;-80
2023/01/17 18:31:26;;;;;;;7.60;1.85;;;0.60;84.70;;;;;;5066578;28;20151;-80
2023/01/17 18:33:55;;;;;;;10.32;1.85;;;0.60;84.90;;;;;;5064680;28;20048;-81
2023/01/17 18:36:23;;;;;;;7.88;1.50;;;0.60;84.80;;;;;;5069276;28;20048;-78
2023/01/17 18:38:51;;;;;;;7.35;1.70;;;0.60;85.50;;;;;;5076398;28;20069;-77
2023/01/17 18:41:22;;;;;;;3.65;1.83;;;0.60;84.90;;;;;;5059468;28;20044;-77
2023/01/17 18:43:49;;;;;;;9.70;1.75;;;0.70;85.20;;;;;;5063353;28;20044;-78
2023/01/17 18:46:18;;;;;;;4.43;1.63;;;0.70;85.10;;;;;;5067204;28;20069;-77
2023/01/17 18:48:45;;;;;;;4.75;1.83;;;0.80;85.30;;;;;;5063159;28;20408;-77
2023/01/17 18:51:14;;;;;;;11.68;1.55;;;0.90;85.20;;;;;;5063260;28;20139;-77
2023/01/17 18:53:43;;;;;;;7.50;1.90;;;0.90;84.60;;;;;;5080118;28;20135;-78
2023/01/17 18:56:16;;;;;;;8.43;1.23;;;1.00;84.10;;;;;;5063396;28;20059;-77
2023/01/17 18:58:45;;;;;;;8.98;1.02;;;1.00;83.80;;;;;;5062511;28;20350;-77
2023/01/17 19:01:21;;;;;;;6.68;1.42;;;1.00;83.60;;;;;;5064796;28;20131;-77
2023/01/17 19:03:51;;;;;;;9.88;1.42;;;1.00;84.10;;;;;;5067791;28;20094;-76
2023/01/17 19:06:24;;;;;;;3.65;1.67;;;0.90;83.40;;;;;;5067554;28;20427;-77
2023/01/17 19:08:51;;;;;;;11.60;1.30;;;0.90;83.80;;;;;;5065525;28;20072;-77
2023/01/17 19:11:19;;;;;;;4.20;1.30;;;0.80;84.30;;;;;;5067673;28;20056;-77
2023/01/17 19:13:49;;;;;;;5.32;1.30;;;0.70;84.70;;;;;;5070263;28;20055;-77
2023/01/17 19:16:26;;;;;;;7.25;1.35;;;0.70;84.70;;;;;;5069786;28;20491;-77
2023/01/17 19:18:55;;;;;;;5.68;1.52;;;0.60;85.20;;;;;;5067804;28;20711;-80
2023/01/17 19:21:26;;;;;;;10.18;1.67;;;0.50;85.60;;;;;;5065764;28;20059;-77
2023/01/17 19:23:54;;;;;;;8.90;1.85;;;0.50;85.80;;;;;;5066774;28;20045;-76
2023/01/17 19:26:23;;;;;;;5.43;1.33;;;0.40;86.00;;;;;;5069241;28;20342;-77
2023/01/17 19:28:50;;;;;;;8.23;2.05;;;0.40;86.20;;;;;;5073867;28;20621;-78
2023/01/17 19:31:23;;;;;;;3.63;1.65;;;0.40;86.40;;;;;;5066191;28;20059;-78
2023/01/17 19:33:53;;;;;;;6.30;2.13;;;0.30;86.60;;;;;;5068606;28;20208;-78
2023/01/17 19:36:22;;;;;;;7.38;1.85;;;0.30;86.50;;;;;;5067075;28;20420;-78
2023/01/17 19:38:50;;;;;;;9.82;1.85;;;0.30;86.80;;;;;;5063849;28;20053;-78
2023/01/17 19:41:35;;;;;;;5.55;1.38;;;0.30;86.80;;;;;;5060993;28;20085;-77
2023/01/17 19:44:07;;;;;;;3.40;1.35;;;0.20;86.90;;;;;;5093553;28;20107;-77
2023/01/17 19:46:35;;;;;;;5.53;2.20;;;0.20;87.00;;;;;;5066296;28;20044;-77
2023/01/17 19:49:04;;;;;;;9.18;2.38;;;0.30;86.90;;;;;;5063820;28;20058;-77
2023/01/17 19:51:32;;;;;;;6.13;1.50;;;0.20;87.00;;;;;;5094233;27;20769;-75
2023/01/17 19:54:00;;;;;;;2.90;1.40;;;0.20;87.00;;;;;;5066467;28;20131;-79
2023/01/17 19:56:28;;;;;;;8.05;1.88;;;0.20;87.20;;;;;;5067311;28;20830;-83
2023/01/17 19:58:59;;;;;;;10.75;1.80;;;0.10;87.50;;;;;;5069839;28;20511;-88
2023/01/17 20:01:30;;;;;;;10.18;1.48;;;0.10;87.40;;;;;;5061989;28;20053;-84
2023/01/17 20:03:59;;;;;;;5.80;1.60;;;0.00;87.70;;;;;;5067677;28;20044;-84
2023/01/17 20:06:29;;;;;;;4.13;1.70;;;0.00;87.80;;;;;;5069687;28;20046;-81
2023/01/17 20:08:56;;;;;;;6.38;1.90;;;0.00;87.90;;;;;;5068860;28;20056;-86
2023/01/17 20:11:25;;;;;;;11.48;2.20;;;0.00;88.40;;;;;;5070641;28;20377;-85
2023/01/17 20:13:54;;;;;;;4.55;1.60;;;0.00;88.30;;;;;;5073676;28;20056;-88
2023/01/17 20:16:23;;;;;;;5.63;1.60;;;-0.10;88.70;;;;;;5065903;28;20131;-83
2023/01/17 20:18:51;;;;;;;4.38;1.77;;;-0.10;88.80;;;;;;5075000;28;20044;-80
2023/01/17 20:21:23;;;;;;;5.65;2.20;;;-0.10;89.00;;;;;;5069285;28;20501;-82
2023/01/17 20:23:51;;;;;;;11.90;2.20;;;-0.10;89.20;;;;;;5070221;28;20059;-81
2023/01/17 20:26:24;;;;;;;11.57;2.15;;;-0.20;89.50;;;;;;5068941;28;20052;-83
2023/01/17 20:28:52;;;;;;;4.15;1.58;;;-0.20;89.50;;;;;;5082521;28;20109;-80
2023/01/17 20:31:22;;;;;;;11.77;2.10;;;-0.30;89.80;;;;;;5069587;28;20092;-82
2023/01/17 20:33:51;;;;;;;8.90;2.35;;;-0.30;90.00;;;;;;5058946;28;20056;-79
2023/01/17 20:36:21;;;;;;;10.02;1.98;;;-0.40;90.20;;;;;;5073577;28;20049;-78
2023/01/17 20:38:48;;;;;;;13.65;2.28;;;-0.40;90.50;;;;;;5073811;28;20064;-79
2023/01/17 20:41:17;;;;;;;5.18;2.40;;;-0.50;90.60;;;;;;5071485;28;20053;-84
2023/01/17 20:43:50;;;;;;;10.57;2.20;;;-0.50;91.00;;;;;;5060149;28;20071;-83
2023/01/17 20:46:18;;;;;;;5.47;2.63;;;-0.50;91.60;;;;;;5064570;28;20048;-77
2023/01/17 20:48:53;;;;;;;7.13;2.58;;;-0.50;91.60;;;;;;5061636;28;20044;-82
2023/01/17 20:51:22;;;;;;;11.70;2.42;;;-0.50;92.10;;;;;;5064345;28;20045;-81
2023/01/17 20:53:51;;;;;;;10.40;2.55;;;-0.60;92.10;;;;;;5065008;28;20347;-82
2023/01/17 20:56:19;;;;;;;5.50;2.28;;;-0.60;92.40;;;;;;5057034;28;20282;-82
2023/01/17 20:58:45;;;;;;;7.75;2.83;;;-0.60;92.40;;;;;;5060299;28;20063;-81
2023/01/17 21:01:18;;;;;;;12.25;3.30;;;-0.70;92.30;;;;;;5067982;28;20148;-81
2023/01/17 21:03:46;;;;;;;15.75;3.40;;;-0.70;92.70;;;;;;5059226;28;20087;-81
2023/01/17 21:06:14;;;;;;;4.57;2.03;;;-0.80;92.90;;;;;;5058112;28;20174;-81
2023/01/17 21:08:43;;;;;;;8.05;3.20;;;-0.80;93.20;;;;;;5061563;28;20049;-82
2023/01/17 21:11:14;;;;;;;9.50;2.60;;;-0.80;93.40;;;;;;5060422;28;20763;-82
2023/01/17 21:13:43;;;;;;;7.18;2.63;;;-0.80;93.70;;;;;;5065155;28;20388;-81
2023/01/17 21:16:15;;;;;;;7.28;2.45;;;-0.90;93.80;;;;;;5068580;28;20054;-81
2023/01/17 21:18:44;;;;;;;9.93;3.40;;;-0.90;93.70;;;;;;5068744;28;20083;-82
2023/01/17 21:21:17;;;;;;;12.52;2.60;;;-0.90;93.80;;;;;;5062682;28;20055;-81
2023/01/17 21:23:44;;;;;;;12.38;3.13;;;-0.90;94.40;;;;;;5063278;28;20056;-81
2023/01/17 21:26:13;;;;;;;9.98;2.78;;;-0.90;94.40;;;;;;5060677;28;20067;-82
2023/01/17 21:28:42;;;;;;;8.50;2.30;;;-1.00;94.60;;;;;;5067166;28;20052;-81
2023/01/17 21:31:28;;;;;;;13.40;2.63;;;-1.00;94.50;;;;;;5072993;28;20067;-81
2023/01/17 21:33:56;;;;;;;8.05;2.95;;;-1.10;94.30;;;;;;5064908;28;20072;-79
2023/01/17 21:36:26;;;;;;;19.50;2.90;;;-1.10;95.60;;;;;;5079519;28;20052;-79
2023/01/17 21:38:55;;;;;;;11.73;2.63;;;-1.10;95.20;;;;;;5069029;28;20040;-79
2023/01/17 21:41:28;;;;;;;9.60;2.60;;;-1.10;95.70;;;;;;5066964;28;20496;-79
2023/01/17 21:43:56;;;;;;;10.75;3.60;;;-1.10;95.70;;;;;;5064736;28;20143;-78
2023/01/17 21:46:24;;;;;;;19.65;3.10;;;-1.10;95.30;;;;;;5064685;28;20087;-78
2023/01/17 21:48:52;;;;;;;18.25;3.83;;;-1.10;95.50;;;;;;5067093;28;20871;-79
2023/01/17 21:51:20;;;;;;;9.52;3.08;;;-1.10;95.30;;;;;;5066927;28;20763;-79
2023/01/17 21:53:50;;;;;;;20.40;3.80;;;-1.00;95.50;;;;;;5061351;28;20804;-79
2023/01/17 21:59:05;;;;;;;10.85;3.72;;;-1.00;95.20;;;;;;5068831;28;20056;-79
2023/01/17 22:01:32;;;;;;;13.82;3.90;;;-1.10;95.40;;;;;;5068088;28;20048;-79
2023/01/17 22:04:01;;;;;;;13.63;3.47;;;-1.10;95.60;;;;;;5066650;28;20083;-79
2023/01/17 22:06:31;;;;;;;19.08;3.88;;;-1.10;95.80;;;;;;5059797;28;20052;-79
2023/01/17 22:08:58;;;;;;;8.90;3.55;;;-1.10;95.70;;;;;;5065122;28;20488;-79
2023/01/17 22:11:29;;;;;;;11.70;3.60;;;-1.10;95.60;;;;;;5059040;28;20378;-79
2023/01/17 22:13:56;;;;;;;15.05;4.95;;;-1.10;95.60;;;;;;5066810;28;20051;-79
2023/01/17 22:16:25;;;;;;;15.95;4.85;;;-1.10;95.20;;;;;;5068682;28;20053;-79
2023/01/17 22:18:51;;;;;;;11.10;4.15;;;-1.10;95.50;;;;;;5064192;28;20054;-78
2023/01/17 22:21:20;;;;;;;12.88;3.55;;;-1.10;95.10;;;;;;5065738;28;20064;-79
2023/01/17 22:23:49;;;;;;;9.55;4.22;;;-1.10;95.30;;;;;;5100781;28;20419;-79
2023/01/17 22:26:16;;;;;;;9.85;4.43;;;-1.10;95.20;;;;;;5067008;28;20055;-79
2023/01/17 22:28:44;;;;;;;14.35;4.78;;;-1.20;95.20;;;;;;5073894;28;20182;-79
2023/01/17 22:31:11;;;;;;;14.07;5.18;;;-1.20;95.40;;;;;;5066169;28;20052;-79
2023/01/17 22:33:40;;;;;;;20.02;5.47;;;-1.20;95.20;;;;;;5069454;28;20071;-79
2023/01/17 22:36:08;;;;;;;19.73;5.22;;;-1.20;95.20;;;;;;5064399;28;20058;-80
2023/01/17 22:38:35;;;;;;;15.98;4.93;;;-1.20;95.10;;;;;;5072144;28;20052;-78
2023/01/17 22:41:09;;;;;;;13.70;4.78;;;-1.20;95.10;;;;;;5069665;28;20990;-78
2023/01/17 22:43:39;;;;;;;20.27;6.47;;;-1.20;95.40;;;;;;5077125;28;20813;-79
2023/01/17 22:46:08;;;;;;;16.95;4.57;;;-1.30;95.40;;;;;;5070197;28;20040;-78
2023/01/17 22:48:37;;;;;;;17.55;5.70;;;-1.30;95.80;;;;;;5070645;28;20052;-78
2023/01/17 22:51:07;;;;;;;28.55;5.60;;;-1.30;96.00;;;;;;5072460;28;20052;-82
2023/01/17 22:53:48;;;;;;;15.02;5.40;;;-1.40;95.90;;;;;;5071735;28;20439;-82
2023/01/17 22:56:20;;;;;;;17.58;5.93;;;-1.30;96.20;;;;;;5067581;28;20057;-82
2023/01/17 22:58:48;;;;;;;20.35;6.00;;;-1.30;96.60;;;;;;5070777;28;20170;-82
2023/01/17 23:01:26;;;;;;;13.85;5.70;;;-1.30;96.50;;;;;;5079228;28;20107;-82
2023/01/17 23:03:59;;;;;;;15.90;5.07;;;-1.40;96.30;;;;;;5071983;28;20040;-82
2023/01/17 23:06:44;;;;;;;18.40;6.00;;;-1.40;96.00;;;;;;5083668;28;20059;-78
2023/01/17 23:09:12;;;;;;;;;;;-1.40;96.20;;;;;;5061808;28;20498;-79
2023/01/17 23:11:49;;;;;;;16.92;5.72;;;-1.40;96.50;;;;;;5067683;28;19924;-79
2023/01/17 23:14:20;;;;;;;16.05;5.70;;;-1.40;96.30;;;;;;5080060;28;20755;-79
2023/01/17 23:19:46;;;;;;;20.05;5.60;;;-1.50;96.40;;;;;;5063299;28;20055;-80
2023/01/17 23:22:15;;;;;;;17.38;5.57;;;-1.50;96.50;;;;;;5069251;28;20043;-79
2023/01/17 23:24:44;;;;;;;25.95;6.35;;;-1.50;96.70;;;;;;5069478;28;20105;-79
2023/01/17 23:30:09;;;;;;;18.73;5.78;;;-1.50;96.80;;;;;;5079438;28;20056;-79
2023/01/17 23:32:44;;;;;;;15.48;5.55;;;-1.60;96.80;;;;;;5074092;28;20040;-79
2023/01/17 23:35:11;;;;;;;14.30;5.05;;;-1.60;96.40;;;;;;5061771;28;20044;-80
2023/01/17 23:43:57;;;;;;;22.05;6.30;;;-1.60;96.60;;;;;;5061164;28;20044;-79
2023/01/17 23:46:25;;;;;;;18.33;6.28;;;-1.60;97.00;;;;;;5072425;28;20119;-79
2023/01/17 23:51:20;;;;;;;20.98;6.00;;;-1.60;96.60;;;;;;5006886;28;20081;-78
2023/01/17 23:53:47;;;;;;;20.48;7.20;;;-1.60;96.50;;;;;;4999554;28;20056;-79
2023/01/17 23:56:18;;;;;;;19.83;6.85;;;-1.60;96.40;;;;;;5004520;28;20610;-79
2023/01/17 23:58:45;;;;;;;23.48;7.10;;;-1.60;96.60;;;;;;5001618;28;20046;-78
